KFAR/FAR METAR and TAF weather

Enter ICAO airport designator
Station Type Date Time Source
KFAR METAR 2019/05/25 09:05 UTC NOAA

KFAR 250905Z 27011KT 10SM FEW016 FEW025 10/09 A2967 RMK AO2 T01000089


Station Type Date Time Source
KFAR Decoded METAR 2019/05/25 09:05 UTC NOAA

HECTOR INTERNATIONAL AIRPORT , ND, United States (KFAR) 46-56N 096-49W 277M
May 25, 2019 - 05:05 AM EDT / 2019.05.25 0905 UTC
Wind: from the W (270 degrees) at 13 MPH (11 KT):0
Visibility: 10 mile(s):0
Sky conditions: mostly clear
Temperature: 50.0 F (10.0 C)
Dew Point: 48.0 F (8.9 C)
Relative Humidity: 92%
Pressure (altimeter): 29.67 in. Hg (1004 hPa)
ob: KFAR 250905Z 27011KT 10SM FEW016 FEW025 10/09 A2967 RMK AO2 T01000089
cycle: 9

Station Type Date Time Source
KFAR TAF 2019/05/25 06:22 UTC NOAA

TAF KFAR 250520Z 2506/2606 26009KT P6SM SCT060
FM251200 29009KT P6SM BKN070
FM252300 32008KT P6SM SCT100

Example: see airport list